sensor_id;sensor_type;location;lat;lon;timestamp;P1;durP1;ratioP1;P2;durP2;ratioP2
85295;SDS011;76389;43.958;2.882;2024-02-26T00:00:38;5.90;;;2.42;;
85295;SDS011;76389;43.958;2.882;2024-02-26T00:03:04;7.18;;;2.03;;
85295;SDS011;76389;43.958;2.882;2024-02-26T00:05:30;4.63;;;1.52;;
85295;SDS011;76389;43.958;2.882;2024-02-26T00:07:56;8.90;;;3.20;;
85295;SDS011;76389;43.958;2.882;2024-02-26T00:10:23;10.18;;;3.28;;
85295;SDS011;76389;43.958;2.882;2024-02-26T00:12:49;20.50;;;6.68;;
85295;SDS011;76389;43.958;2.882;2024-02-26T00:15:15;14.75;;;5.63;;
85295;SDS011;76389;43.958;2.882;2024-02-26T00:17:41;15.60;;;5.70;;
85295;SDS011;76389;43.958;2.882;2024-02-26T00:20:08;17.80;;;6.18;;
85295;SDS011;76389;43.958;2.882;2024-02-26T00:22:36;18.08;;;7.72;;
85295;SDS011;76389;43.958;2.882;2024-02-26T00:25:03;17.45;;;6.53;;
85295;SDS011;76389;43.958;2.882;2024-02-26T00:27:30;14.15;;;5.00;;
85295;SDS011;76389;43.958;2.882;2024-02-26T00:29:56;10.55;;;4.45;;
85295;SDS011;76389;43.958;2.882;2024-02-26T00:32:22;14.05;;;4.30;;
85295;SDS011;76389;43.958;2.882;2024-02-26T00:34:48;10.35;;;2.60;;
85295;SDS011;76389;43.958;2.882;2024-02-26T00:37:15;6.75;;;2.17;;
85295;SDS011;76389;43.958;2.882;2024-02-26T00:39:41;13.43;;;4.80;;
85295;SDS011;76389;43.958;2.882;2024-02-26T00:42:08;22.73;;;8.15;;
85295;SDS011;76389;43.958;2.882;2024-02-26T00:44:34;19.92;;;6.40;;
85295;SDS011;76389;43.958;2.882;2024-02-26T00:47:00;16.38;;;6.15;;
85295;SDS011;76389;43.958;2.882;2024-02-26T00:49:27;13.55;;;5.40;;
85295;SDS011;76389;43.958;2.882;2024-02-26T00:51:53;11.48;;;4.90;;
85295;SDS011;76389;43.958;2.882;2024-02-26T00:54:19;8.68;;;2.88;;
85295;SDS011;76389;43.958;2.882;2024-02-26T00:56:45;11.40;;;3.10;;
85295;SDS011;76389;43.958;2.882;2024-02-26T00:59:11;5.75;;;2.40;;
85295;SDS011;76389;43.958;2.882;2024-02-26T01:01:37;6.72;;;2.38;;
85295;SDS011;76389;43.958;2.882;2024-02-26T01:04:03;13.73;;;5.90;;
85295;SDS011;76389;43.958;2.882;2024-02-26T01:06:29;15.02;;;5.60;;
85295;SDS011;76389;43.958;2.882;2024-02-26T01:08:55;11.32;;;4.90;;
85295;SDS011;76389;43.958;2.882;2024-02-26T01:11:21;5.30;;;1.83;;
85295;SDS011;76389;43.958;2.882;2024-02-26T01:13:48;6.25;;;2.15;;
85295;SDS011;76389;43.958;2.882;2024-02-26T01:16:14;10.02;;;4.65;;
85295;SDS011;76389;43.958;2.882;2024-02-26T01:18:40;8.15;;;2.95;;
85295;SDS011;76389;43.958;2.882;2024-02-26T01:21:06;6.97;;;3.08;;
85295;SDS011;76389;43.958;2.882;2024-02-26T01:23:34;8.00;;;3.97;;
85295;SDS011;76389;43.958;2.882;2024-02-26T01:26:00;9.85;;;4.30;;
85295;SDS011;76389;43.958;2.882;2024-02-26T01:28:28;9.40;;;3.50;;
85295;SDS011;76389;43.958;2.882;2024-02-26T01:30:54;8.18;;;3.42;;
85295;SDS011;76389;43.958;2.882;2024-02-26T01:33:20;8.20;;;3.30;;
85295;SDS011;76389;43.958;2.882;2024-02-26T01:35:46;6.63;;;3.20;;
85295;SDS011;76389;43.958;2.882;2024-02-26T01:38:12;9.35;;;3.42;;
85295;SDS011;76389;43.958;2.882;2024-02-26T01:40:38;11.85;;;4.28;;
85295;SDS011;76389;43.958;2.882;2024-02-26T01:43:04;14.07;;;6.50;;
85295;SDS011;76389;43.958;2.882;2024-02-26T01:45:30;9.25;;;3.60;;
85295;SDS011;76389;43.958;2.882;2024-02-26T01:47:56;6.40;;;2.85;;
85295;SDS011;76389;43.958;2.882;2024-02-26T01:50:23;11.65;;;4.35;;
85295;SDS011;76389;43.958;2.882;2024-02-26T01:52:50;20.67;;;7.35;;
85295;SDS011;76389;43.958;2.882;2024-02-26T01:55:18;12.93;;;5.15;;
85295;SDS011;76389;43.958;2.882;2024-02-26T01:57:45;10.20;;;5.05;;
85295;SDS011;76389;43.958;2.882;2024-02-26T02:00:12;11.13;;;3.88;;
85295;SDS011;76389;43.958;2.882;2024-02-26T02:02:39;8.50;;;3.90;;
85295;SDS011;76389;43.958;2.882;2024-02-26T02:05:07;6.93;;;2.75;;
85295;SDS011;76389;43.958;2.882;2024-02-26T02:07:35;8.20;;;3.33;;
85295;SDS011;76389;43.958;2.882;2024-02-26T02:10:01;7.25;;;2.88;;
85295;SDS011;76389;43.958;2.882;2024-02-26T02:12:28;8.50;;;2.75;;
85295;SDS011;76389;43.958;2.882;2024-02-26T02:14:54;12.45;;;3.33;;
85295;SDS011;76389;43.958;2.882;2024-02-26T02:17:20;7.03;;;2.92;;
85295;SDS011;76389;43.958;2.882;2024-02-26T02:19:46;6.57;;;2.17;;
85295;SDS011;76389;43.958;2.882;2024-02-26T02:22:12;4.82;;;2.08;;
85295;SDS011;76389;43.958;2.882;2024-02-26T02:24:38;4.07;;;1.23;;
85295;SDS011;76389;43.958;2.882;2024-02-26T02:27:05;3.35;;;1.75;;
85295;SDS011;76389;43.958;2.882;2024-02-26T02:29:31;4.80;;;1.15;;
85295;SDS011;76389;43.958;2.882;2024-02-26T02:31:57;7.50;;;0.93;;
85295;SDS011;76389;43.958;2.882;2024-02-26T02:34:23;5.53;;;0.85;;
85295;SDS011;76389;43.958;2.882;2024-02-26T02:36:53;5.00;;;1.55;;
85295;SDS011;76389;43.958;2.882;2024-02-26T02:39:20;6.25;;;1.42;;
85295;SDS011;76389;43.958;2.882;2024-02-26T02:41:46;3.10;;;0.70;;
85295;SDS011;76389;43.958;2.882;2024-02-26T02:44:12;5.88;;;0.82;;
85295;SDS011;76389;43.958;2.882;2024-02-26T02:46:39;7.60;;;1.23;;
85295;SDS011;76389;43.958;2.882;2024-02-26T02:49:08;4.72;;;1.10;;
85295;SDS011;76389;43.958;2.882;2024-02-26T02:51:35;5.93;;;0.93;;
85295;SDS011;76389;43.958;2.882;2024-02-26T02:54:02;6.22;;;0.90;;
85295;SDS011;76389;43.958;2.882;2024-02-26T02:56:28;5.25;;;1.90;;
85295;SDS011;76389;43.958;2.882;2024-02-26T02:58:54;7.28;;;1.00;;
85295;SDS011;76389;43.958;2.882;2024-02-26T03:01:20;4.93;;;0.80;;
85295;SDS011;76389;43.958;2.882;2024-02-26T03:03:46;9.55;;;0.82;;
85295;SDS011;76389;43.958;2.882;2024-02-26T03:06:12;5.30;;;0.75;;
85295;SDS011;76389;43.958;2.882;2024-02-26T03:08:39;10.52;;;1.13;;
85295;SDS011;76389;43.958;2.882;2024-02-26T03:11:07;9.95;;;0.93;;
85295;SDS011;76389;43.958;2.882;2024-02-26T03:13:33;11.32;;;5.53;;
85295;SDS011;76389;43.958;2.882;2024-02-26T03:16:03;13.65;;;5.80;;
85295;SDS011;76389;43.958;2.882;2024-02-26T03:18:30;10.63;;;4.05;;
85295;SDS011;76389;43.958;2.882;2024-02-26T03:20:56;11.93;;;3.88;;
85295;SDS011;76389;43.958;2.882;2024-02-26T03:23:22;9.75;;;2.72;;
85295;SDS011;76389;43.958;2.882;2024-02-26T03:25:48;10.27;;;2.42;;
85295;SDS011;76389;43.958;2.882;2024-02-26T03:28:14;7.38;;;2.65;;
85295;SDS011;76389;43.958;2.882;2024-02-26T03:30:40;8.88;;;2.17;;
85295;SDS011;76389;43.958;2.882;2024-02-26T03:33:06;7.20;;;2.45;;
85295;SDS011;76389;43.958;2.882;2024-02-26T03:35:33;7.88;;;2.65;;
85295;SDS011;76389;43.958;2.882;2024-02-26T03:37:59;8.32;;;1.50;;
85295;SDS011;76389;43.958;2.882;2024-02-26T03:40:25;6.25;;;1.95;;
85295;SDS011;76389;43.958;2.882;2024-02-26T03:42:51;10.77;;;2.13;;
85295;SDS011;76389;43.958;2.882;2024-02-26T03:45:19;6.05;;;1.85;;
85295;SDS011;76389;43.958;2.882;2024-02-26T03:47:45;6.45;;;1.33;;
85295;SDS011;76389;43.958;2.882;2024-02-26T03:50:11;8.43;;;1.70;;
85295;SDS011;76389;43.958;2.882;2024-02-26T03:52:37;5.05;;;1.70;;
85295;SDS011;76389;43.958;2.882;2024-02-26T03:55:03;5.82;;;1.63;;
85295;SDS011;76389;43.958;2.882;2024-02-26T03:57:30;8.77;;;1.70;;
85295;SDS011;76389;43.958;2.882;2024-02-26T03:59:56;6.70;;;1.83;;
85295;SDS011;76389;43.958;2.882;2024-02-26T04:02:22;7.43;;;1.67;;
85295;SDS011;76389;43.958;2.882;2024-02-26T04:04:48;9.63;;;2.60;;
85295;SDS011;76389;43.958;2.882;2024-02-26T04:07:14;8.63;;;1.75;;
85295;SDS011;76389;43.958;2.882;2024-02-26T04:09:41;10.23;;;1.27;;
85295;SDS011;76389;43.958;2.882;2024-02-26T04:12:08;5.85;;;1.55;;
85295;SDS011;76389;43.958;2.882;2024-02-26T04:14:35;9.63;;;1.92;;
85295;SDS011;76389;43.958;2.882;2024-02-26T04:17:02;6.95;;;2.45;;
85295;SDS011;76389;43.958;2.882;2024-02-26T04:19:28;7.18;;;1.27;;
85295;SDS011;76389;43.958;2.882;2024-02-26T04:21:54;10.35;;;1.50;;
85295;SDS011;76389;43.958;2.882;2024-02-26T04:24:20;7.72;;;1.60;;
85295;SDS011;76389;43.958;2.882;2024-02-26T04:26:46;7.18;;;1.83;;
85295;SDS011;76389;43.958;2.882;2024-02-26T04:29:15;7.72;;;1.52;;
85295;SDS011;76389;43.958;2.882;2024-02-26T04:31:41;9.15;;;1.33;;
85295;SDS011;76389;43.958;2.882;2024-02-26T04:34:08;9.85;;;2.33;;
85295;SDS011;76389;43.958;2.882;2024-02-26T04:36:34;5.72;;;1.35;;
85295;SDS011;76389;43.958;2.882;2024-02-26T04:39:00;7.50;;;0.85;;
85295;SDS011;76389;43.958;2.882;2024-02-26T04:41:26;10.35;;;1.58;;
85295;SDS011;76389;43.958;2.882;2024-02-26T04:43:52;6.85;;;1.15;;
85295;SDS011;76389;43.958;2.882;2024-02-26T04:46:18;9.57;;;1.83;;
85295;SDS011;76389;43.958;2.882;2024-02-26T04:48:44;10.15;;;1.45;;
85295;SDS011;76389;43.958;2.882;2024-02-26T04:51:12;9.25;;;1.55;;
85295;SDS011;76389;43.958;2.882;2024-02-26T04:53:38;11.63;;;2.47;;
85295;SDS011;76389;43.958;2.882;2024-02-26T04:56:04;12.25;;;2.35;;
85295;SDS011;76389;43.958;2.882;2024-02-26T04:58:30;16.17;;;2.20;;
85295;SDS011;76389;43.958;2.882;2024-02-26T05:00:56;11.90;;;3.42;;
85295;SDS011;76389;43.958;2.882;2024-02-26T05:03:22;23.77;;;6.90;;
85295;SDS011;76389;43.958;2.882;2024-02-26T05:05:48;8.93;;;2.33;;
85295;SDS011;76389;43.958;2.882;2024-02-26T05:08:14;23.42;;;5.05;;
85295;SDS011;76389;43.958;2.882;2024-02-26T05:10:40;17.05;;;5.90;;
85295;SDS011;76389;43.958;2.882;2024-02-26T05:13:08;18.83;;;5.07;;
85295;SDS011;76389;43.958;2.882;2024-02-26T05:15:35;14.57;;;3.00;;
85295;SDS011;76389;43.958;2.882;2024-02-26T05:18:01;17.55;;;3.38;;
85295;SDS011;76389;43.958;2.882;2024-02-26T05:20:28;7.35;;;1.27;;
85295;SDS011;76389;43.958;2.882;2024-02-26T05:22:54;4.40;;;0.90;;
85295;SDS011;76389;43.958;2.882;2024-02-26T05:25:20;2.10;;;1.05;;
85295;SDS011;76389;43.958;2.882;2024-02-26T05:27:46;3.90;;;0.22;;
85295;SDS011;76389;43.958;2.882;2024-02-26T05:30:12;4.22;;;0.90;;
85295;SDS011;76389;43.958;2.882;2024-02-26T05:32:39;5.65;;;0.77;;
85295;SDS011;76389;43.958;2.882;2024-02-26T05:35:05;10.40;;;1.65;;
85295;SDS011;76389;43.958;2.882;2024-02-26T05:37:32;4.45;;;1.40;;
85295;SDS011;76389;43.958;2.882;2024-02-26T05:39:58;9.07;;;0.73;;
85295;SDS011;76389;43.958;2.882;2024-02-26T05:42:24;2.22;;;0.80;;
85295;SDS011;76389;43.958;2.882;2024-02-26T05:44:50;6.72;;;1.20;;
85295;SDS011;76389;43.958;2.882;2024-02-26T05:47:17;8.60;;;1.38;;
85295;SDS011;76389;43.958;2.882;2024-02-26T05:49:43;10.13;;;1.15;;
85295;SDS011;76389;43.958;2.882;2024-02-26T05:52:09;3.83;;;0.88;;
85295;SDS011;76389;43.958;2.882;2024-02-26T05:54:35;6.03;;;0.65;;
85295;SDS011;76389;43.958;2.882;2024-02-26T05:57:01;6.18;;;0.88;;
85295;SDS011;76389;43.958;2.882;2024-02-26T05:59:27;3.63;;;0.73;;
85295;SDS011;76389;43.958;2.882;2024-02-26T06:01:53;4.20;;;0.65;;
85295;SDS011;76389;43.958;2.882;2024-02-26T06:04:19;3.45;;;0.30;;
85295;SDS011;76389;43.958;2.882;2024-02-26T06:06:46;2.53;;;0.50;;
85295;SDS011;76389;43.958;2.882;2024-02-26T06:09:12;3.05;;;1.00;;
85295;SDS011;76389;43.958;2.882;2024-02-26T06:11:38;5.25;;;0.40;;
85295;SDS011;76389;43.958;2.882;2024-02-26T06:14:04;4.15;;;0.70;;
85295;SDS011;76389;43.958;2.882;2024-02-26T06:16:30;2.17;;;1.00;;
85295;SDS011;76389;43.958;2.882;2024-02-26T06:18:56;5.47;;;1.20;;
85295;SDS011;76389;43.958;2.882;2024-02-26T06:21:23;5.45;;;0.40;;
85295;SDS011;76389;43.958;2.882;2024-02-26T06:23:49;3.45;;;0.75;;
85295;SDS011;76389;43.958;2.882;2024-02-26T06:26:16;4.65;;;0.50;;
85295;SDS011;76389;43.958;2.882;2024-02-26T06:28:42;3.95;;;0.88;;
85295;SDS011;76389;43.958;2.882;2024-02-26T06:31:08;1.98;;;0.77;;
85295;SDS011;76389;43.958;2.882;2024-02-26T06:33:34;3.95;;;0.43;;
85295;SDS011;76389;43.958;2.882;2024-02-26T06:36:00;5.07;;;0.43;;
85295;SDS011;76389;43.958;2.882;2024-02-26T06:38:26;5.78;;;0.85;;
85295;SDS011;76389;43.958;2.882;2024-02-26T06:40:52;1.58;;;0.40;;
85295;SDS011;76389;43.958;2.882;2024-02-26T06:43:19;5.28;;;0.70;;
85295;SDS011;76389;43.958;2.882;2024-02-26T06:45:45;3.50;;;0.40;;
85295;SDS011;76389;43.958;2.882;2024-02-26T06:48:11;2.78;;;0.90;;
85295;SDS011;76389;43.958;2.882;2024-02-26T06:50:37;3.10;;;0.32;;
85295;SDS011;76389;43.958;2.882;2024-02-26T06:53:03;4.07;;;0.35;;
85295;SDS011;76389;43.958;2.882;2024-02-26T06:55:29;5.75;;;1.05;;
85295;SDS011;76389;43.958;2.882;2024-02-26T06:57:56;4.50;;;1.08;;
85295;SDS011;76389;43.958;2.882;2024-02-26T07:00:22;10.68;;;1.90;;
85295;SDS011;76389;43.958;2.882;2024-02-26T07:02:48;4.82;;;0.95;;
85295;SDS011;76389;43.958;2.882;2024-02-26T07:05:14;7.85;;;2.85;;
85295;SDS011;76389;43.958;2.882;2024-02-26T07:07:41;9.35;;;2.28;;
85295;SDS011;76389;43.958;2.882;2024-02-26T07:10:08;5.05;;;1.10;;
85295;SDS011;76389;43.958;2.882;2024-02-26T07:12:34;6.13;;;1.40;;
85295;SDS011;76389;43.958;2.882;2024-02-26T07:15:00;9.13;;;1.98;;
85295;SDS011;76389;43.958;2.882;2024-02-26T07:17:30;7.38;;;0.47;;
85295;SDS011;76389;43.958;2.882;2024-02-26T07:19:56;6.68;;;1.40;;
85295;SDS011;76389;43.958;2.882;2024-02-26T07:22:22;1.95;;;0.85;;
85295;SDS011;76389;43.958;2.882;2024-02-26T07:24:48;5.65;;;1.25;;
85295;SDS011;76389;43.958;2.882;2024-02-26T07:27:15;6.22;;;0.85;;
85295;SDS011;76389;43.958;2.882;2024-02-26T07:29:42;5.90;;;0.47;;
85295;SDS011;76389;43.958;2.882;2024-02-26T07:32:09;4.43;;;0.80;;
85295;SDS011;76389;43.958;2.882;2024-02-26T07:34:36;2.28;;;0.60;;
85295;SDS011;76389;43.958;2.882;2024-02-26T07:39:32;4.35;;;0.80;;
85295;SDS011;76389;43.958;2.882;2024-02-26T07:41:58;2.35;;;0.50;;
85295;SDS011;76389;43.958;2.882;2024-02-26T07:44:24;2.45;;;0.90;;
85295;SDS011;76389;43.958;2.882;2024-02-26T07:46:50;5.93;;;0.43;;
85295;SDS011;76389;43.958;2.882;2024-02-26T07:49:16;5.68;;;0.85;;
85295;SDS011;76389;43.958;2.882;2024-02-26T07:51:44;2.22;;;0.52;;
85295;SDS011;76389;43.958;2.882;2024-02-26T07:54:10;5.40;;;1.60;;
85295;SDS011;76389;43.958;2.882;2024-02-26T07:56:36;4.47;;;0.65;;
85295;SDS011;76389;43.958;2.882;2024-02-26T07:59:02;7.65;;;0.90;;
85295;SDS011;76389;43.958;2.882;2024-02-26T08:01:28;2.85;;;0.98;;
85295;SDS011;76389;43.958;2.882;2024-02-26T08:03:56;3.90;;;1.05;;
85295;SDS011;76389;43.958;2.882;2024-02-26T08:06:22;4.63;;;1.33;;
85295;SDS011;76389;43.958;2.882;2024-02-26T08:08:49;4.25;;;0.52;;
85295;SDS011;76389;43.958;2.882;2024-02-26T08:11:16;5.10;;;0.68;;
85295;SDS011;76389;43.958;2.882;2024-02-26T08:13:42;6.70;;;0.88;;
85295;SDS011;76389;43.958;2.882;2024-02-26T08:16:09;4.47;;;0.90;;
85295;SDS011;76389;43.958;2.882;2024-02-26T08:18:35;5.85;;;0.60;;
85295;SDS011;76389;43.958;2.882;2024-02-26T08:21:01;2.45;;;0.52;;
85295;SDS011;76389;43.958;2.882;2024-02-26T08:23:28;3.70;;;1.25;;
85295;SDS011;76389;43.958;2.882;2024-02-26T08:25:54;4.40;;;1.02;;
85295;SDS011;76389;43.958;2.882;2024-02-26T08:28:21;2.47;;;1.00;;
85295;SDS011;76389;43.958;2.882;2024-02-26T08:30:47;5.07;;;0.98;;
85295;SDS011;76389;43.958;2.882;2024-02-26T08:33:13;4.15;;;1.10;;
85295;SDS011;76389;43.958;2.882;2024-02-26T08:35:40;2.33;;;0.98;;
85295;SDS011;76389;43.958;2.882;2024-02-26T08:38:06;1.75;;;0.55;;
85295;SDS011;76389;43.958;2.882;2024-02-26T08:40:32;5.40;;;1.55;;
85295;SDS011;76389;43.958;2.882;2024-02-26T08:42:58;3.35;;;0.52;;
85295;SDS011;76389;43.958;2.882;2024-02-26T08:45:24;3.50;;;0.65;;
85295;SDS011;76389;43.958;2.882;2024-02-26T08:47:55;6.18;;;0.65;;
85295;SDS011;76389;43.958;2.882;2024-02-26T08:50:21;3.17;;;0.60;;
85295;SDS011;76389;43.958;2.882;2024-02-26T08:52:47;3.20;;;1.00;;
85295;SDS011;76389;43.958;2.882;2024-02-26T08:55:16;2.33;;;0.20;;
85295;SDS011;76389;43.958;2.882;2024-02-26T08:57:42;5.20;;;0.70;;
85295;SDS011;76389;43.958;2.882;2024-02-26T09:00:08;4.43;;;1.38;;
85295;SDS011;76389;43.958;2.882;2024-02-26T09:02:36;1.92;;;0.90;;
85295;SDS011;76389;43.958;2.882;2024-02-26T09:05:04;7.05;;;0.50;;
85295;SDS011;76389;43.958;2.882;2024-02-26T09:07:31;1.90;;;0.70;;
85295;SDS011;76389;43.958;2.882;2024-02-26T09:09:57;2.22;;;0.30;;
85295;SDS011;76389;43.958;2.882;2024-02-26T09:12:23;1.73;;;0.40;;
85295;SDS011;76389;43.958;2.882;2024-02-26T09:14:49;3.85;;;0.88;;
85295;SDS011;76389;43.958;2.882;2024-02-26T09:17:15;4.47;;;0.63;;
85295;SDS011;76389;43.958;2.882;2024-02-26T09:19:41;2.15;;;0.60;;
85295;SDS011;76389;43.958;2.882;2024-02-26T09:22:08;4.63;;;0.47;;
85295;SDS011;76389;43.958;2.882;2024-02-26T11:01:27;3.50;;;0.77;;
85295;SDS011;76389;43.958;2.882;2024-02-26T11:03:55;2.33;;;0.60;;
85295;SDS011;76389;43.958;2.882;2024-02-26T11:06:21;5.03;;;0.38;;
85295;SDS011;76389;43.958;2.882;2024-02-26T11:08:48;4.35;;;0.43;;
85295;SDS011;76389;43.958;2.882;2024-02-26T11:11:15;4.75;;;0.32;;
85295;SDS011;76389;43.958;2.882;2024-02-26T11:13:44;4.20;;;0.52;;
85295;SDS011;76389;43.958;2.882;2024-02-26T11:16:15;2.28;;;0.60;;
85295;SDS011;76389;43.958;2.882;2024-02-26T11:18:43;3.88;;;0.52;;
85295;SDS011;76389;43.958;2.882;2024-02-26T11:21:16;2.30;;;0.43;;
85295;SDS011;76389;43.958;2.882;2024-02-26T11:23:52;3.72;;;0.40;;
85295;SDS011;76389;43.958;2.882;2024-02-26T11:26:20;4.90;;;1.23;;
85295;SDS011;76389;43.958;2.882;2024-02-26T11:28:47;3.35;;;0.60;;
85295;SDS011;76389;43.958;2.882;2024-02-26T11:31:14;1.95;;;0.70;;
85295;SDS011;76389;43.958;2.882;2024-02-26T11:33:40;2.85;;;0.30;;
85295;SDS011;76389;43.958;2.882;2024-02-26T11:36:10;6.35;;;0.65;;
85295;SDS011;76389;43.958;2.882;2024-02-26T11:38:37;3.65;;;0.60;;
85295;SDS011;76389;43.958;2.882;2024-02-26T11:41:04;2.80;;;0.80;;
85295;SDS011;76389;43.958;2.882;2024-02-26T11:44:14;2.38;;;0.40;;
85295;SDS011;76389;43.958;2.882;2024-02-26T11:48:56;4.88;;;1.23;;
85295;SDS011;76389;43.958;2.882;2024-02-26T11:51:27;2.83;;;0.80;;
85295;SDS011;76389;43.958;2.882;2024-02-26T11:53:54;2.60;;;0.52;;
85295;SDS011;76389;43.958;2.882;2024-02-26T11:56:22;3.05;;;0.40;;
85295;SDS011;76389;43.958;2.882;2024-02-26T11:58:57;3.20;;;0.80;;
85295;SDS011;76389;43.958;2.882;2024-02-26T12:04:04;6.40;;;0.68;;
85295;SDS011;76389;43.958;2.882;2024-02-26T12:06:38;6.65;;;0.60;;
85295;SDS011;76389;43.958;2.882;2024-02-26T12:09:07;2.25;;;0.38;;
85295;SDS011;76389;43.958;2.882;2024-02-26T12:11:37;3.53;;;0.80;;
85295;SDS011;76389;43.958;2.882;2024-02-26T12:14:03;3.95;;;0.47;;
85295;SDS011;76389;43.958;2.882;2024-02-26T12:16:35;7.45;;;0.63;;
85295;SDS011;76389;43.958;2.882;2024-02-26T12:19:04;4.40;;;0.60;;
85295;SDS011;76389;43.958;2.882;2024-02-26T12:21:33;2.22;;;0.20;;
85295;SDS011;76389;43.958;2.882;2024-02-26T12:24:07;4.28;;;1.05;;
85295;SDS011;76389;43.958;2.882;2024-02-26T12:26:35;5.13;;;0.70;;
85295;SDS011;76389;43.958;2.882;2024-02-26T12:29:01;4.70;;;0.52;;
85295;SDS011;76389;43.958;2.882;2024-02-26T12:31:27;3.22;;;0.50;;
85295;SDS011;76389;43.958;2.882;2024-02-26T12:33:54;2.33;;;0.45;;
85295;SDS011;76389;43.958;2.882;2024-02-26T12:36:21;3.97;;;0.30;;
85295;SDS011;76389;43.958;2.882;2024-02-26T12:38:48;3.42;;;0.60;;
85295;SDS011;76389;43.958;2.882;2024-02-26T12:41:16;2.25;;;0.32;;
85295;SDS011;76389;43.958;2.882;2024-02-26T12:43:42;3.25;;;0.60;;
85295;SDS011;76389;43.958;2.882;2024-02-26T12:46:08;1.33;;;0.43;;
85295;SDS011;76389;43.958;2.882;2024-02-26T12:48:34;4.38;;;0.50;;
85295;SDS011;76389;43.958;2.882;2024-02-26T12:51:01;2.22;;;0.80;;
85295;SDS011;76389;43.958;2.882;2024-02-26T12:53:27;4.03;;;0.32;;
85295;SDS011;76389;43.958;2.882;2024-02-26T12:55:54;4.20;;;0.30;;
85295;SDS011;76389;43.958;2.882;2024-02-26T12:58:21;2.88;;;0.52;;
85295;SDS011;76389;43.958;2.882;2024-02-26T13:00:51;3.72;;;0.50;;
85295;SDS011;76389;43.958;2.882;2024-02-26T13:03:18;4.28;;;0.63;;
85295;SDS011;76389;43.958;2.882;2024-02-26T13:05:45;1.45;;;0.52;;
85295;SDS011;76389;43.958;2.882;2024-02-26T13:08:18;3.20;;;0.30;;
85295;SDS011;76389;43.958;2.882;2024-02-26T13:10:46;1.20;;;0.15;;
85295;SDS011;76389;43.958;2.882;2024-02-26T13:13:16;2.05;;;0.43;;
85295;SDS011;76389;43.958;2.882;2024-02-26T13:15:43;4.07;;;0.52;;
85295;SDS011;76389;43.958;2.882;2024-02-26T13:18:10;4.13;;;0.60;;
85295;SDS011;76389;43.958;2.882;2024-02-26T13:20:37;2.20;;;0.77;;
85295;SDS011;76389;43.958;2.882;2024-02-26T13:23:06;4.55;;;0.40;;
85295;SDS011;76389;43.958;2.882;2024-02-26T13:25:33;0.93;;;0.25;;
85295;SDS011;76389;43.958;2.882;2024-02-26T13:28:09;1.77;;;0.52;;
85295;SDS011;76389;43.958;2.882;2024-02-26T13:30:39;3.03;;;0.70;;
85295;SDS011;76389;43.958;2.882;2024-02-26T13:33:09;3.22;;;0.22;;
85295;SDS011;76389;43.958;2.882;2024-02-26T13:35:36;4.88;;;0.52;;
85295;SDS011;76389;43.958;2.882;2024-02-26T13:38:04;3.70;;;0.30;;
85295;SDS011;76389;43.958;2.882;2024-02-26T13:40:32;0.85;;;0.32;;
85295;SDS011;76389;43.958;2.882;2024-02-26T13:42:58;4.47;;;0.60;;
85295;SDS011;76389;43.958;2.882;2024-02-26T13:45:24;4.53;;;0.75;;
85295;SDS011;76389;43.958;2.882;2024-02-26T13:47:50;2.55;;;0.70;;
85295;SDS011;76389;43.958;2.882;2024-02-26T13:50:16;5.75;;;1.08;;
85295;SDS011;76389;43.958;2.882;2024-02-26T13:52:47;1.80;;;0.40;;
85295;SDS011;76389;43.958;2.882;2024-02-26T13:55:18;2.38;;;0.77;;
85295;SDS011;76389;43.958;2.882;2024-02-26T13:57:46;2.22;;;0.22;;
85295;SDS011;76389;43.958;2.882;2024-02-26T14:00:12;2.35;;;0.47;;
85295;SDS011;76389;43.958;2.882;2024-02-26T14:02:39;5.65;;;0.80;;
85295;SDS011;76389;43.958;2.882;2024-02-26T14:05:05;3.47;;;0.60;;
85295;SDS011;76389;43.958;2.882;2024-02-26T14:07:31;3.63;;;0.60;;
85295;SDS011;76389;43.958;2.882;2024-02-26T14:09:58;2.47;;;0.45;;
85295;SDS011;76389;43.958;2.882;2024-02-26T14:12:24;3.80;;;0.80;;
85295;SDS011;76389;43.958;2.882;2024-02-26T14:14:51;1.52;;;0.40;;
85295;SDS011;76389;43.958;2.882;2024-02-26T14:17:19;3.60;;;0.17;;
85295;SDS011;76389;43.958;2.882;2024-02-26T14:19:45;1.13;;;0.28;;
85295;SDS011;76389;43.958;2.882;2024-02-26T14:22:13;2.65;;;0.30;;
85295;SDS011;76389;43.958;2.882;2024-02-26T14:24:41;3.08;;;0.50;;
85295;SDS011;76389;43.958;2.882;2024-02-26T14:27:08;2.20;;;0.47;;
85295;SDS011;76389;43.958;2.882;2024-02-26T14:32:03;2.33;;;0.30;;
85295;SDS011;76389;43.958;2.882;2024-02-26T14:34:29;3.50;;;0.85;;
85295;SDS011;76389;43.958;2.882;2024-02-26T14:36:56;1.38;;;0.30;;
85295;SDS011;76389;43.958;2.882;2024-02-26T14:39:22;2.25;;;0.45;;
85295;SDS011;76389;43.958;2.882;2024-02-26T14:41:49;5.25;;;0.75;;
85295;SDS011;76389;43.958;2.882;2024-02-26T14:44:15;1.05;;;0.47;;
85295;SDS011;76389;43.958;2.882;2024-02-26T14:46:41;3.90;;;0.63;;
85295;SDS011;76389;43.958;2.882;2024-02-26T14:49:07;0.93;;;0.20;;
85295;SDS011;76389;43.958;2.882;2024-02-26T14:51:33;3.50;;;0.70;;
85295;SDS011;76389;43.958;2.882;2024-02-26T14:54:00;2.00;;;0.38;;
85295;SDS011;76389;43.958;2.882;2024-02-26T14:56:27;2.72;;;0.50;;
85295;SDS011;76389;43.958;2.882;2024-02-26T14:58:53;2.38;;;0.50;;
85295;SDS011;76389;43.958;2.882;2024-02-26T15:01:19;1.02;;;0.22;;
85295;SDS011;76389;43.958;2.882;2024-02-26T15:03:45;1.35;;;0.45;;
85295;SDS011;76389;43.958;2.882;2024-02-26T15:06:18;3.60;;;0.63;;
85295;SDS011;76389;43.958;2.882;2024-02-26T15:08:44;2.05;;;0.20;;
85295;SDS011;76389;43.958;2.882;2024-02-26T15:11:11;2.03;;;0.38;;
85295;SDS011;76389;43.958;2.882;2024-02-26T15:13:37;2.58;;;0.70;;
85295;SDS011;76389;43.958;2.882;2024-02-26T15:16:05;2.78;;;0.30;;
85295;SDS011;76389;43.958;2.882;2024-02-26T15:18:31;1.45;;;0.95;;
85295;SDS011;76389;43.958;2.882;2024-02-26T15:20:57;2.88;;;0.55;;
85295;SDS011;76389;43.958;2.882;2024-02-26T15:23:24;1.23;;;0.35;;
85295;SDS011;76389;43.958;2.882;2024-02-26T15:25:50;1.48;;;0.68;;
85295;SDS011;76389;43.958;2.882;2024-02-26T15:28:16;1.98;;;0.52;;
85295;SDS011;76389;43.958;2.882;2024-02-26T15:30:42;2.17;;;0.22;;
85295;SDS011;76389;43.958;2.882;2024-02-26T15:33:08;2.17;;;0.38;;
85295;SDS011;76389;43.958;2.882;2024-02-26T15:35:34;2.35;;;0.47;;
85295;SDS011;76389;43.958;2.882;2024-02-26T15:38:02;1.77;;;0.80;;
85295;SDS011;76389;43.958;2.882;2024-02-26T15:40:29;2.92;;;0.55;;
85295;SDS011;76389;43.958;2.882;2024-02-26T15:42:55;0.57;;;0.13;;
85295;SDS011;76389;43.958;2.882;2024-02-26T15:45:21;1.25;;;0.65;;
85295;SDS011;76389;43.958;2.882;2024-02-26T15:50:15;3.00;;;0.40;;
85295;SDS011;76389;43.958;2.882;2024-02-26T15:52:41;1.90;;;0.20;;
85295;SDS011;76389;43.958;2.882;2024-02-26T15:55:08;4.88;;;1.15;;
85295;SDS011;76389;43.958;2.882;2024-02-26T15:57:37;2.22;;;0.32;;
85295;SDS011;76389;43.958;2.882;2024-02-26T16:00:03;2.65;;;1.00;;
85295;SDS011;76389;43.958;2.882;2024-02-26T16:02:36;3.05;;;0.68;;
85295;SDS011;76389;43.958;2.882;2024-02-26T16:05:03;2.10;;;0.40;;
85295;SDS011;76389;43.958;2.882;2024-02-26T16:07:31;0.55;;;0.22;;
85295;SDS011;76389;43.958;2.882;2024-02-26T16:10:15;1.67;;;0.65;;
85295;SDS011;76389;43.958;2.882;2024-02-26T16:12:44;2.45;;;0.35;;
85295;SDS011;76389;43.958;2.882;2024-02-26T16:15:14;2.33;;;0.40;;
85295;SDS011;76389;43.958;2.882;2024-02-26T16:17:42;2.28;;;0.32;;
85295;SDS011;76389;43.958;2.882;2024-02-26T16:20:15;4.68;;;0.32;;
85295;SDS011;76389;43.958;2.882;2024-02-26T16:22:44;3.60;;;0.40;;
85295;SDS011;76389;43.958;2.882;2024-02-26T16:25:10;1.45;;;0.40;;
85295;SDS011;76389;43.958;2.882;2024-02-26T16:27:37;4.57;;;0.28;;
85295;SDS011;76389;43.958;2.882;2024-02-26T16:30:04;3.05;;;1.08;;
85295;SDS011;76389;43.958;2.882;2024-02-26T16:32:31;1.67;;;0.30;;